Time;durP1;ratioP1;P1;durP2;ratioP2;P2;SDS_P1;SDS_P2;PMS_P1;PMS_P2;Temp;Humidity;BMP_temperature;BMP_pressure;BME280_temperature;BME280_humidity;BME280_pressure;Samples;Min_cycle;Max_cycle;Signal;HPM_P1;HPM_P2
2022/05/09 00:01:21;;;;;;;6.93;3.20;;;10.90;70.30;;;;;;4984421;28;20084;-79
2022/05/09 00:03:47;;;;;;;2.75;2.55;;;10.90;69.60;;;;;;4984166;28;20038;-79
2022/05/09 00:06:13;;;;;;;5.85;3.15;;;11.00;69.80;;;;;;4969610;28;20033;-79
2022/05/09 00:08:40;;;;;;;4.18;2.80;;;10.90;70.00;;;;;;4953911;28;20687;-79
2022/05/09 00:11:06;;;;;;;6.60;2.75;;;10.90;70.10;;;;;;4970518;28;20033;-79
2022/05/09 00:13:31;;;;;;;7.00;3.53;;;10.80;72.50;;;;;;4960762;28;20149;-79
2022/05/09 00:15:57;;;;;;;7.57;3.42;;;10.70;70.20;;;;;;4968307;28;20041;-79
2022/05/09 00:18:22;;;;;;;7.63;3.53;;;10.60;70.10;;;;;;4970125;28;20038;-79
2022/05/09 00:20:48;;;;;;;11.18;3.65;;;10.60;70.50;;;;;;4985995;28;20521;-79
2022/05/09 00:23:13;;;;;;;5.38;3.38;;;10.50;71.20;;;;;;4969526;28;20522;-79
2022/05/09 00:25:39;;;;;;;6.30;3.47;;;10.50;70.90;;;;;;4965280;28;20050;-79
2022/05/09 00:28:04;;;;;;;6.85;3.60;;;10.50;70.90;;;;;;4970772;28;20034;-78
2022/05/09 00:30:30;;;;;;;9.02;3.92;;;10.40;70.70;;;;;;4986511;28;20452;-79
2022/05/09 00:32:55;;;;;;;4.85;3.55;;;10.30;75.60;;;;;;4983302;28;20105;-79
2022/05/09 00:35:21;;;;;;;11.48;4.30;;;10.10;72.30;;;;;;4968353;28;20581;-78
2022/05/09 00:37:46;;;;;;;8.63;3.13;;;10.10;73.80;;;;;;4971309;28;20474;-78
2022/05/09 00:40:13;;;;;;;7.38;3.25;;;10.20;75.20;;;;;;4972210;28;20042;-78
2022/05/09 00:42:44;;;;;;;7.38;4.22;;;10.10;75.50;;;;;;4982614;28;20034;-78
2022/05/09 00:45:10;;;;;;;8.45;3.80;;;10.00;77.40;;;;;;4966936;28;20068;-79
2022/05/09 00:47:35;;;;;;;6.38;4.05;;;10.10;75.90;;;;;;4985961;28;20054;-79
2022/05/09 00:50:02;;;;;;;10.75;4.30;;;10.10;75.10;;;;;;4969854;28;20040;-78
2022/05/09 00:52:36;;;;;;;9.20;4.45;;;10.00;76.80;;;;;;4965474;28;20026;-78
2022/05/09 00:55:07;;;;;;;8.27;4.70;;;9.90;77.90;;;;;;4969952;28;20034;-78
2022/05/09 00:57:41;;;;;;;7.22;4.03;;;9.80;81.80;;;;;;4959917;28;20498;-78
2022/05/09 01:00:12;;;;;;;10.95;4.93;;;9.80;82.00;;;;;;4978225;28;20042;-78
2022/05/09 01:02:38;;;;;;;9.95;4.20;;;9.70;85.40;;;;;;4971325;28;20056;-78
2022/05/09 01:05:04;;;;;;;9.20;4.20;;;9.70;86.90;;;;;;4968752;28;20038;-78
2022/05/09 01:07:33;;;;;;;11.65;5.15;;;9.80;83.90;;;;;;4968252;28;20407;-78
2022/05/09 01:09:58;;;;;;;12.43;4.55;;;9.80;87.10;;;;;;4969801;28;20022;-78
2022/05/09 01:12:31;;;;;;;14.50;4.25;;;9.60;91.30;;;;;;4984044;28;20085;-78
2022/05/09 01:15:00;;;;;;;10.95;4.70;;;9.60;87.60;;;;;;4964512;28;20472;-78
2022/05/09 01:17:26;;;;;;;5.10;3.20;;;9.70;85.10;;;;;;4957772;28;20033;-78
2022/05/09 01:19:53;;;;;;;8.00;4.63;;;9.80;84.40;;;;;;4972642;28;20474;-78
2022/05/09 01:22:21;;;;;;;6.57;3.97;;;9.80;84.20;;;;;;4955253;28;20033;-78
2022/05/09 01:24:46;;;;;;;8.30;4.15;;;9.80;83.60;;;;;;4991181;28;20117;-78
2022/05/09 01:27:12;;;;;;;6.70;3.90;;;9.80;83.60;;;;;;4981144;28;20121;-78
2022/05/09 01:30:05;;;;;;;5.78;4.05;;;9.80;83.30;;;;;;4973426;28;20030;-78
2022/05/09 01:32:39;;;;;;;6.60;3.95;;;9.80;82.50;;;;;;4986943;28;20374;-78
2022/05/09 01:35:08;;;;;;;7.70;4.40;;;9.70;82.90;;;;;;4977669;28;20034;-78
2022/05/09 01:37:33;;;;;;;11.82;5.75;;;9.70;84.00;;;;;;4972698;28;20049;-78
2022/05/09 01:39:59;;;;;;;11.57;4.78;;;9.60;84.40;;;;;;4984767;28;20060;-78
2022/05/09 01:42:25;;;;;;;4.68;2.95;;;9.70;84.10;;;;;;4955503;28;20521;-78
2022/05/09 01:44:51;;;;;;;9.50;3.72;;;9.70;82.10;;;;;;4952622;28;20029;-78
2022/05/09 01:50:00;;;;;;;4.28;2.90;;;9.60;83.00;;;;;;4991858;28;20037;-78
2022/05/09 01:52:26;;;;;;;6.20;2.88;;;9.60;79.90;;;;;;4986687;28;20493;-78
2022/05/09 01:54:52;;;;;;;5.85;3.05;;;9.50;80.60;;;;;;4966388;28;20022;-78
2022/05/09 01:57:17;;;;;;;6.57;4.10;;;9.50;81.50;;;;;;4975065;28;20105;-78
2022/05/09 01:59:43;;;;;;;11.82;5.13;;;9.50;82.40;;;;;;4970920;28;20036;-78
2022/05/09 02:02:11;;;;;;;12.90;4.88;;;9.40;85.80;;;;;;4970711;28;20564;-78
2022/05/09 02:04:41;;;;;;;10.88;5.03;;;9.10;93.20;;;;;;4984828;28;20160;-78
2022/05/09 02:07:10;;;;;;;10.13;5.18;;;8.80;95.40;;;;;;4973032;28;20061;-78
2022/05/09 02:09:40;;;;;;;13.93;6.43;;;8.60;97.90;;;;;;4980824;28;20046;-78
2022/05/09 02:12:06;;;;;;;11.10;5.40;;;8.50;99.30;;;;;;5001335;28;20030;-78
2022/05/09 02:14:32;;;;;;;14.30;5.45;;;8.60;99.90;;;;;;4972181;28;20035;-78
2022/05/09 02:16:57;;;;;;;7.45;5.10;;;8.80;98.00;;;;;;4987776;28;20030;-78
2022/05/09 02:19:23;;;;;;;11.18;5.78;;;8.80;96.60;;;;;;4985011;28;20457;-78
2022/05/09 02:21:48;;;;;;;9.52;4.75;;;8.90;96.10;;;;;;4968073;28;20045;-78
2022/05/09 02:24:14;;;;;;;5.35;3.40;;;9.00;95.60;;;;;;4986537;28;20107;-78
2022/05/09 02:26:39;;;;;;;14.85;5.70;;;9.20;91.50;;;;;;4955387;28;20184;-78
2022/05/09 02:29:05;;;;;;;8.30;4.15;;;9.00;93.10;;;;;;4986016;28;20100;-78
2022/05/09 02:31:32;;;;;;;6.03;3.00;;;9.00;90.90;;;;;;4954827;28;20038;-78
2022/05/09 02:33:58;;;;;;;5.80;3.75;;;9.10;92.90;;;;;;4982802;28;20448;-79
2022/05/09 02:36:23;;;;;;;6.35;4.32;;;9.00;91.60;;;;;;4972394;28;20029;-80
2022/05/09 02:38:49;;;;;;;7.20;4.30;;;9.10;92.70;;;;;;4966403;28;20038;-80
2022/05/09 02:41:14;;;;;;;10.52;5.40;;;9.10;91.80;;;;;;4972939;28;20115;-80
2022/05/09 02:43:40;;;;;;;11.95;5.68;;;9.00;96.60;;;;;;4983346;28;20038;-80
2022/05/09 02:46:06;;;;;;;10.15;5.13;;;8.80;95.90;;;;;;4971839;28;20033;-80
2022/05/09 02:48:35;;;;;;;12.02;5.47;;;8.90;95.60;;;;;;4970423;28;20041;-80
2022/05/09 02:51:01;;;;;;;10.25;5.82;;;8.70;97.00;;;;;;4973473;28;20124;-80
2022/05/09 02:53:29;;;;;;;17.73;6.50;;;8.60;99.90;;;;;;4970266;28;20545;-80
2022/05/09 02:55:55;;;;;;;11.25;6.28;;;8.40;99.90;;;;;;4972301;28;20041;-80
2022/05/09 02:58:21;;;;;;;10.55;5.50;;;8.50;99.90;;;;;;4956808;28;20109;-79
2022/05/09 03:00:46;;;;;;;15.45;6.40;;;8.30;99.90;;;;;;4967710;28;20040;-80
2022/05/09 03:05:56;;;;;;;12.18;6.55;;;8.40;99.90;;;;;;4984263;28;20061;-80
2022/05/09 03:08:23;;;;;;;10.85;6.47;;;8.70;99.90;;;;;;4968081;28;20069;-80
2022/05/09 03:10:48;;;;;;;6.28;3.72;;;8.80;98.70;;;;;;4986847;28;20034;-80
2022/05/09 03:13:14;;;;;;;5.78;4.03;;;8.80;97.70;;;;;;4972588;28;20038;-80
2022/05/09 03:15:41;;;;;;;8.98;5.47;;;8.80;96.60;;;;;;4971985;28;20042;-80
2022/05/09 03:18:07;;;;;;;9.80;5.72;;;8.90;99.70;;;;;;4983408;28;20034;-80
2022/05/09 03:20:33;;;;;;;9.23;4.63;;;8.80;97.20;;;;;;4968882;28;20046;-80
2022/05/09 03:22:59;;;;;;;4.30;3.42;;;8.80;97.00;;;;;;4969138;28;20045;-80
2022/05/09 03:25:24;;;;;;;5.72;3.28;;;8.80;96.10;;;;;;4982843;28;20370;-80
2022/05/09 03:27:50;;;;;;;4.40;3.10;;;8.80;95.10;;;;;;4972416;28;20044;-80
2022/05/09 03:30:15;;;;;;;9.52;3.00;;;8.70;94.70;;;;;;4951274;28;20113;-80
2022/05/09 03:32:41;;;;;;;4.43;2.70;;;8.70;94.60;;;;;;4983505;28;20375;-80
2022/05/09 03:35:08;;;;;;;8.82;4.40;;;8.60;94.80;;;;;;4967140;28;20401;-80
2022/05/09 03:37:33;;;;;;;8.70;5.13;;;8.60;95.80;;;;;;4985916;28;20125;-80
2022/05/09 03:39:59;;;;;;;10.65;6.35;;;8.50;99.40;;;;;;4968265;28;20617;-80
2022/05/09 03:42:24;;;;;;;7.78;5.00;;;8.50;98.20;;;;;;4984876;28;20400;-80
2022/05/09 03:44:51;;;;;;;6.70;3.72;;;8.60;96.70;;;;;;4971463;28;20545;-80
2022/05/09 03:47:16;;;;;;;8.95;5.43;;;8.70;95.30;;;;;;4970140;28;20026;-81
2022/05/09 03:49:42;;;;;;;9.55;5.80;;;8.60;96.80;;;;;;4968639;28;20084;-80
2022/05/09 03:52:08;;;;;;;6.97;5.40;;;8.40;99.90;;;;;;4961696;28;20022;-80
2022/05/09 03:54:34;;;;;;;10.07;6.53;;;8.40;99.90;;;;;;4965461;28;20674;-80
2022/05/09 03:56:59;;;;;;;8.20;4.88;;;8.50;98.90;;;;;;4968240;28;20469;-80
2022/05/09 03:59:25;;;;;;;11.25;6.07;;;8.60;97.60;;;;;;4983825;28;20034;-80
2022/05/09 04:01:50;;;;;;;12.35;6.85;;;8.60;97.20;;;;;;4983669;28;20088;-80
2022/05/09 04:04:16;;;;;;;9.52;6.47;;;8.60;98.30;;;;;;4985070;28;20119;-80
2022/05/09 04:06:42;;;;;;;9.95;6.43;;;8.50;99.90;;;;;;4986774;28;20030;-80
2022/05/09 04:09:07;;;;;;;14.90;6.20;;;8.50;99.90;;;;;;4981832;28;20367;-80
2022/05/09 04:11:33;;;;;;;7.30;3.95;;;8.50;99.90;;;;;;4970717;28;20038;-80
2022/05/09 04:13:58;;;;;;;9.02;6.20;;;8.50;98.20;;;;;;4985155;28;20053;-80
2022/05/09 04:19:08;;;;;;;11.68;6.47;;;8.50;99.90;;;;;;4984377;28;20045;-80
2022/05/09 04:21:33;;;;;;;7.15;5.07;;;8.40;99.90;;;;;;4969738;28;20073;-80
2022/05/09 04:23:59;;;;;;;5.85;4.35;;;8.40;99.20;;;;;;4971245;28;20025;-80
2022/05/09 04:26:26;;;;;;;10.10;6.50;;;8.50;98.30;;;;;;4969937;28;20033;-80
2022/05/09 04:28:51;;;;;;;11.75;6.53;;;8.40;99.90;;;;;;4954763;28;20573;-80
2022/05/09 04:31:19;;;;;;;8.48;6.45;;;8.40;99.90;;;;;;4986669;28;20130;-80
2022/05/09 04:33:45;;;;;;;15.68;6.70;;;8.40;99.90;;;;;;4967355;28;20030;-80
2022/05/09 04:36:11;;;;;;;12.82;7.05;;;8.50;99.90;;;;;;4969741;28;20034;-80
2022/05/09 04:38:39;;;;;;;8.05;6.00;;;8.60;99.90;;;;;;4952205;28;20026;-80
2022/05/09 04:41:04;;;;;;;12.32;6.90;;;8.70;99.90;;;;;;4986728;28;20038;-81
2022/05/09 04:43:31;;;;;;;10.75;6.88;;;8.80;99.90;;;;;;4978088;28;20042;-80
2022/05/09 04:46:00;;;;;;;11.32;6.90;;;8.90;99.90;;;;;;4972662;28;20050;-81
2022/05/09 04:48:25;;;;;;;12.55;6.20;;;8.90;99.90;;;;;;4979085;28;20054;-81
2022/05/09 04:50:51;;;;;;;12.65;7.05;;;9.00;99.90;;;;;;4971135;28;20034;-81
2022/05/09 04:53:19;;;;;;;6.38;4.13;;;9.10;99.90;;;;;;4986484;28;20037;-81
2022/05/09 04:55:45;;;;;;;12.65;6.15;;;9.20;99.90;;;;;;4959775;28;20495;-81
2022/05/09 04:58:12;;;;;;;14.85;6.53;;;9.30;99.50;;;;;;4971133;28;20431;-81
2022/05/09 05:00:38;;;;;;;11.88;6.72;;;9.30;99.90;;;;;;4957918;28;20093;-81
2022/05/09 05:03:03;;;;;;;9.38;6.78;;;9.40;99.90;;;;;;4973707;28;20045;-80
2022/05/09 05:05:29;;;;;;;15.93;6.75;;;9.40;99.90;;;;;;4986227;28;20100;-80
2022/05/09 05:07:54;;;;;;;9.60;6.45;;;9.50;99.90;;;;;;4970839;28;20127;-80
2022/05/09 05:10:20;;;;;;;6.93;5.90;;;9.60;99.90;;;;;;4958509;28;20395;-81
2022/05/09 05:12:45;;;;;;;10.27;6.82;;;9.70;99.90;;;;;;4989226;28;20026;-81
2022/05/09 05:15:12;;;;;;;10.82;7.07;;;9.90;99.90;;;;;;4982604;28;20506;-81
2022/05/09 05:17:37;;;;;;;12.43;6.45;;;10.00;99.90;;;;;;4958891;28;20053;-81
2022/05/09 05:20:12;;;;;;;13.55;8.57;;;10.20;99.90;;;;;;4984249;28;20116;-80
2022/05/09 05:22:38;;;;;;;11.90;6.50;;;10.40;99.90;;;;;;4970742;28;20104;-81
2022/05/09 05:25:04;;;;;;;7.35;6.05;;;10.60;99.90;;;;;;4988973;28;20565;-80
2022/05/09 05:27:30;;;;;;;9.32;5.95;;;10.70;99.90;;;;;;4974364;28;20048;-80
2022/05/09 05:29:57;;;;;;;15.70;5.82;;;10.90;99.90;;;;;;4969041;28;20026;-80
2022/05/09 05:32:27;;;;;;;8.30;5.90;;;11.20;99.90;;;;;;4973454;28;20030;-80
2022/05/09 05:34:53;;;;;;;10.48;6.85;;;11.40;99.90;;;;;;4991355;28;20041;-80
2022/05/09 05:37:18;;;;;;;12.98;5.95;;;11.60;99.90;;;;;;4972784;28;20481;-81
2022/05/09 05:39:45;;;;;;;15.50;6.28;;;11.80;99.90;;;;;;4972714;28;20030;-80
2022/05/09 05:42:10;;;;;;;10.75;6.30;;;12.10;99.90;;;;;;4971855;28;20555;-81
2022/05/09 05:44:37;;;;;;;12.15;6.20;;;12.20;99.90;;;;;;4974231;28;20073;-81
2022/05/09 05:47:10;;;;;;;9.15;6.53;;;12.40;99.90;;;;;;4973549;28;20541;-81
2022/05/09 05:49:37;;;;;;;12.15;6.05;;;12.50;99.90;;;;;;4987479;28;20524;-81
2022/05/09 05:52:03;;;;;;;13.25;7.32;;;12.70;99.90;;;;;;4984947;28;20114;-80
2022/05/09 05:54:34;;;;;;;15.63;6.57;;;12.90;99.90;;;;;;4989665;28;20568;-80
2022/05/09 05:57:00;;;;;;;11.23;6.13;;;13.10;99.90;;;;;;4957238;28;20034;-81
2022/05/09 05:59:26;;;;;;;12.27;6.38;;;13.30;99.90;;;;;;4969287;28;20045;-81
2022/05/09 06:01:52;;;;;;;16.70;8.27;;;13.40;99.90;;;;;;4952912;28;20504;-81
2022/05/09 06:04:19;;;;;;;10.23;6.05;;;13.50;99.90;;;;;;4986405;28;20037;-80
2022/05/09 06:06:44;;;;;;;16.60;6.72;;;13.70;99.90;;;;;;4985862;28;20036;-81
2022/05/09 06:09:11;;;;;;;9.98;6.07;;;13.90;99.90;;;;;;4985013;28;20033;-81
2022/05/09 06:11:37;;;;;;;11.30;5.95;;;14.00;99.90;;;;;;4972998;28;20030;-81
2022/05/09 06:14:05;;;;;;;9.20;5.85;;;14.20;99.90;;;;;;4971540;28;20095;-81
2022/05/09 06:16:30;;;;;;;13.65;6.13;;;14.40;99.90;;;;;;4971740;28;20489;-82
2022/05/09 06:18:56;;;;;;;13.45;6.38;;;14.50;99.90;;;;;;4988314;28;20033;-81
2022/05/09 06:21:22;;;;;;;7.35;4.43;;;14.70;99.90;;;;;;4973975;28;20180;-82
2022/05/09 06:23:48;;;;;;;11.05;5.20;;;14.80;99.50;;;;;;4962845;28;20072;-81
2022/05/09 06:26:14;;;;;;;12.30;6.00;;;14.90;99.90;;;;;;4969355;28;20030;-82
2022/05/09 06:28:40;;;;;;;10.35;5.45;;;15.20;99.90;;;;;;4973335;28;20041;-81
2022/05/09 06:31:06;;;;;;;10.35;6.40;;;15.30;99.90;;;;;;4987929;28;20385;-82
2022/05/09 06:33:32;;;;;;;8.07;5.60;;;15.50;99.90;;;;;;4968781;28;20087;-82
2022/05/09 06:35:57;;;;;;;9.40;5.47;;;15.60;99.90;;;;;;4984982;28;20096;-82
2022/05/09 06:38:25;;;;;;;7.95;4.80;;;15.60;99.90;;;;;;4971165;28;20151;-82
2022/05/09 06:40:52;;;;;;;12.55;6.13;;;15.70;98.30;;;;;;4988889;28;20030;-82
2022/05/09 06:43:18;;;;;;;9.57;5.30;;;16.10;99.60;;;;;;4984705;28;20034;-82
2022/05/09 06:45:44;;;;;;;10.18;5.55;;;15.80;99.10;;;;;;4988635;28;20109;-82
2022/05/09 06:48:10;;;;;;;10.82;6.10;;;16.50;98.90;;;;;;4990690;28;20026;-82
2022/05/09 06:50:35;;;;;;;14.35;6.00;;;16.70;98.70;;;;;;4987866;28;20036;-82
2022/05/09 06:53:01;;;;;;;8.35;5.78;;;16.90;98.20;;;;;;4986710;28;20040;-82
2022/05/09 06:55:27;;;;;;;11.38;5.65;;;17.00;97.70;;;;;;4972909;28;20040;-82
2022/05/09 06:57:52;;;;;;;7.07;4.97;;;17.10;97.50;;;;;;4971897;28;20037;-82
2022/05/09 07:00:21;;;;;;;13.95;5.70;;;17.30;97.20;;;;;;4972997;28;20068;-82
2022/05/09 07:02:46;;;;;;;19.17;5.13;;;17.50;97.10;;;;;;4985219;28;20034;-82
2022/05/09 07:05:12;;;;;;;13.32;5.30;;;17.60;96.80;;;;;;4984367;28;20045;-82
2022/05/09 07:07:39;;;;;;;13.57;5.35;;;17.80;96.40;;;;;;4972250;28;20034;-82
2022/05/09 07:10:05;;;;;;;8.63;4.78;;;17.90;96.20;;;;;;4971107;28;20139;-82
2022/05/09 07:12:30;;;;;;;6.90;3.58;;;18.10;96.30;;;;;;4986438;28;20031;-82
2022/05/09 07:14:56;;;;;;;14.55;5.70;;;18.30;95.90;;;;;;4985968;28;20030;-82
2022/05/09 07:17:22;;;;;;;7.03;4.78;;;18.60;95.80;;;;;;4982651;28;20076;-82
2022/05/09 07:19:47;;;;;;;9.65;4.72;;;18.60;95.50;;;;;;4950569;28;20034;-82
2022/05/09 07:22:13;;;;;;;9.80;4.10;;;18.80;95.10;;;;;;4970949;28;20149;-82
2022/05/09 07:24:40;;;;;;;8.35;4.05;;;18.90;94.60;;;;;;4983110;28;20058;-81
2022/05/09 07:27:06;;;;;;;10.98;4.57;;;19.20;94.40;;;;;;4981673;28;20030;-82
2022/05/09 07:29:32;;;;;;;13.90;4.90;;;19.30;94.20;;;;;;4953178;28;20081;-82
2022/05/09 07:31:57;;;;;;;14.35;3.92;;;19.50;93.40;;;;;;4968306;28;20080;-82
2022/05/09 07:34:24;;;;;;;6.38;3.78;;;19.50;93.00;;;;;;4954971;28;20066;-82
2022/05/09 07:36:49;;;;;;;7.15;3.60;;;19.70;92.90;;;;;;4966992;28;20081;-82
2022/05/09 07:39:15;;;;;;;6.57;3.53;;;19.70;92.70;;;;;;4982250;28;20038;-82
2022/05/09 07:41:42;;;;;;;6.75;2.97;;;20.00;93.20;;;;;;4955139;28;20401;-83
2022/05/09 07:44:08;;;;;;;4.88;2.80;;;20.50;92.70;;;;;;4966590;28;20096;-83
2022/05/09 07:46:33;;;;;;;6.68;3.25;;;20.30;92.30;;;;;;4954942;28;20038;-82
2022/05/09 07:48:59;;;;;;;7.50;3.95;;;20.50;91.40;;;;;;4972226;28;20033;-82
2022/05/09 07:51:24;;;;;;;9.10;4.32;;;20.60;91.20;;;;;;4984692;28;20030;-82
2022/05/09 07:53:50;;;;;;;11.15;4.40;;;20.60;91.70;;;;;;4966766;28;20113;-82
2022/05/09 07:56:15;;;;;;;6.20;3.75;;;20.90;91.40;;;;;;4950309;28;20027;-82
2022/05/09 07:58:41;;;;;;;7.57;4.00;;;21.20;90.80;;;;;;4985379;28;20096;-82
2022/05/09 08:01:06;;;;;;;6.68;3.53;;;21.50;90.30;;;;;;4967964;28;20050;-82
2022/05/09 08:03:33;;;;;;;11.15;3.97;;;21.60;90.60;;;;;;4971728;28;20425;-82
2022/05/09 08:06:00;;;;;;;9.23;2.55;;;21.80;89.60;;;;;;4969775;28;20044;-82
2022/05/09 08:08:28;;;;;;;11.02;3.80;;;21.90;89.60;;;;;;4985091;28;20041;-82
2022/05/09 08:10:55;;;;;;;7.80;3.10;;;22.10;87.90;;;;;;4966021;28;20026;-82
2022/05/09 08:13:21;;;;;;;7.65;3.33;;;22.30;86.40;;;;;;4984788;28;20026;-83
2022/05/09 08:15:46;;;;;;;10.18;3.47;;;22.50;89.00;;;;;;4971679;28;20037;-83
2022/05/09 08:18:13;;;;;;;7.45;3.60;;;22.50;86.60;;;;;;4969144;28;20026;-82
2022/05/09 08:20:40;;;;;;;8.23;3.72;;;22.60;88.10;;;;;;4954082;28;20077;-83
2022/05/09 08:23:08;;;;;;;7.25;3.90;;;22.90;87.10;;;;;;4955886;28;20042;-83
2022/05/09 08:25:34;;;;;;;3.22;1.92;;;23.60;86.10;;;;;;4969354;28;20371;-83
2022/05/09 08:28:01;;;;;;;5.53;2.53;;;23.30;81.30;;;;;;4970683;28;20034;-83
2022/05/09 08:30:32;;;;;;;2.78;1.95;;;23.40;83.00;;;;;;4982771;28;20415;-83
2022/05/09 08:33:05;;;;;;;5.63;2.33;;;23.40;79.60;;;;;;4972022;28;20040;-83
2022/05/09 08:35:30;;;;;;;2.20;1.90;;;23.50;82.50;;;;;;4981025;28;20035;-83
2022/05/09 08:37:56;;;;;;;14.02;5.05;;;23.30;79.40;;;;;;4984757;28;20041;-83
2022/05/09 08:40:37;;;;;;;7.00;3.67;;;24.10;80.30;;;;;;4982300;28;20041;-83
2022/05/09 08:43:13;;;;;;;6.95;3.13;;;24.40;79.40;;;;;;4965693;28;20031;-84
2022/05/09 08:45:41;;;;;;;5.75;2.97;;;24.60;78.40;;;;;;4968071;28;20430;-84
2022/05/09 08:48:23;;;;;;;6.15;2.53;;;24.50;77.90;;;;;;4955218;28;20149;-84
2022/05/09 08:50:54;;;;;;;4.80;2.45;;;24.40;80.10;;;;;;4969501;28;20046;-84
2022/05/09 08:53:24;;;;;;;8.50;3.58;;;24.60;77.20;;;;;;4969221;28;20252;-84
2022/05/09 08:55:54;;;;;;;4.38;2.15;;;24.40;78.90;;;;;;4968243;28;20080;-84
2022/05/09 08:58:40;;;;;;;6.70;3.55;;;24.60;76.40;;;;;;4953688;28;20030;-84
2022/05/09 09:01:20;;;;;;;6.88;3.75;;;25.10;75.10;;;;;;4983577;28;20532;-84
2022/05/09 09:04:04;;;;;;;7.38;2.78;;;25.10;73.80;;;;;;4947665;28;20139;-85
2022/05/09 09:06:48;;;;;;;5.35;4.13;;;25.00;74.10;;;;;;4967257;28;20413;-84
2022/05/09 09:09:26;;;;;;;6.97;3.40;;;25.40;76.90;;;;;;4966346;28;20026;-85
2022/05/09 09:12:13;;;;;;;3.75;2.60;;;25.50;75.00;;;;;;4970568;28;20034;-84
2022/05/09 09:15:20;;;;;;;5.22;2.65;;;25.80;75.80;;;;;;4970550;28;20038;-84
2022/05/09 09:18:03;;;;;;;6.30;3.15;;;26.20;75.30;;;;;;4965341;28;20088;-85
2022/05/09 09:20:40;;;;;;;3.40;2.70;;;26.40;72.30;;;;;;4966539;28;20038;-85
2022/05/09 09:23:39;;;;;;;6.65;3.55;;;26.60;71.40;;;;;;4974661;28;20030;-85
2022/05/09 09:26:28;;;;;;;9.38;4.53;;;26.40;71.80;;;;;;4966302;28;20030;-84
2022/05/09 09:29:21;;;;;;;7.07;3.55;;;26.50;73.80;;;;;;4972053;28;20026;-84
2022/05/09 09:31:49;;;;;;;7.00;3.90;;;26.60;71.90;;;;;;4968623;28;20390;-84
2022/05/09 09:34:52;;;;;;;6.40;3.30;;;26.90;72.90;;;;;;4982577;28;20022;-84
2022/05/09 09:37:56;;;;;;;5.00;2.60;;;27.20;70.80;;;;;;4932333;28;20034;-83
2022/05/09 09:40:24;;;;;;;5.25;3.22;;;27.20;69.30;;;;;;4969441;28;20033;-83
2022/05/09 09:42:53;;;;;;;4.25;2.75;;;27.20;69.70;;;;;;4989290;28;20026;-82
2022/05/09 09:45:31;;;;;;;5.70;3.22;;;27.50;66.30;;;;;;4956205;28;20099;-82
2022/05/09 09:48:18;;;;;;;7.47;4.40;;;27.40;70.20;;;;;;4974667;28;20559;-82
2022/05/09 09:51:01;;;;;;;6.07;3.88;;;27.90;68.00;;;;;;4972313;28;20560;-82
2022/05/09 09:53:35;;;;;;;5.75;2.75;;;27.90;67.10;;;;;;4959038;28;20332;-82
2022/05/09 09:56:23;;;;;;;4.10;2.42;;;27.70;67.50;;;;;;4983096;28;20029;-81
2022/05/09 09:58:50;;;;;;;3.63;2.10;;;28.00;67.40;;;;;;4975238;28;20080;-81
2022/05/09 10:01:30;;;;;;;4.50;2.40;;;28.40;68.00;;;;;;4966102;28;20069;-81
2022/05/09 10:04:09;;;;;;;4.68;2.97;;;28.50;66.20;;;;;;4957923;28;20042;-81
2022/05/09 10:06:35;;;;;;;12.43;4.13;;;28.50;65.40;;;;;;4981585;28;20065;-81
2022/05/09 10:09:03;;;;;;;5.60;4.03;;;28.60;66.30;;;;;;4970914;28;20041;-81
2022/05/09 10:11:29;;;;;;;10.77;4.05;;;29.00;65.80;;;;;;4966922;28;20042;-81
2022/05/09 10:13:57;;;;;;;4.82;2.30;;;29.30;64.30;;;;;;4973210;28;20029;-81
2022/05/09 10:16:45;;;;;;;3.80;2.47;;;29.20;62.60;;;;;;4972980;28;20521;-81
2022/05/09 10:19:13;;;;;;;8.20;4.60;;;29.20;64.00;;;;;;4961548;28;20493;-81
2022/05/09 10:24:51;;;;;;;5.97;3.45;;;29.80;61.20;;;;;;4967756;28;20057;-81
2022/05/09 10:27:28;;;;;;;4.63;2.80;;;29.50;61.40;;;;;;4991163;28;20034;-81
2022/05/09 10:29:56;;;;;;;5.90;3.33;;;29.40;62.00;;;;;;5000340;28;20042;-80
2022/05/09 10:32:47;;;;;;;5.57;3.05;;;29.40;62.40;;;;;;4973841;28;20057;-80
2022/05/09 10:35:31;;;;;;;7.22;4.00;;;30.30;59.40;;;;;;4976268;28;20482;-80
2022/05/09 10:38:02;;;;;;;5.95;4.53;;;30.30;60.20;;;;;;5004002;28;20056;-81
2022/05/09 10:40:32;;;;;;;5.72;4.03;;;30.40;59.30;;;;;;4987849;28;20034;-80
2022/05/09 10:43:04;;;;;;;6.95;3.85;;;30.40;58.70;;;;;;4985725;28;20092;-80
2022/05/09 10:45:32;;;;;;;6.93;3.63;;;30.40;59.40;;;;;;4981510;28;20030;-80
2022/05/09 10:48:13;;;;;;;6.30;3.30;;;30.70;57.40;;;;;;4987756;28;20050;-80
2022/05/09 10:51:09;;;;;;;7.38;3.58;;;30.70;57.90;;;;;;5001919;28;20034;-80
2022/05/09 10:53:40;;;;;;;4.20;3.25;;;31.50;57.60;;;;;;4985669;28;20030;-81
2022/05/09 10:56:10;;;;;;;4.25;2.72;;;31.40;57.30;;;;;;4968505;28;20037;-80
2022/05/09 10:59:03;;;;;;;4.95;2.95;;;31.40;57.00;;;;;;4956058;28;20115;-80
2022/05/09 11:01:47;;;;;;;6.72;3.10;;;32.40;52.50;;;;;;4956343;28;20072;-80
2022/05/09 11:04:14;;;;;;;4.47;3.00;;;32.10;55.30;;;;;;4985512;28;20125;-80
2022/05/09 11:06:53;;;;;;;6.85;2.88;;;32.10;56.20;;;;;;4986861;28;20548;-80
2022/05/09 11:09:41;;;;;;;4.47;3.00;;;31.70;56.30;;;;;;4983328;28;20042;-80
2022/05/09 11:12:12;;;;;;;4.28;2.90;;;32.60;52.00;;;;;;4965958;28;20053;-80
2022/05/09 11:14:45;;;;;;;5.35;2.35;;;32.40;53.60;;;;;;4972232;28;20038;-80
2022/05/09 11:17:48;;;;;;;5.88;2.55;;;32.30;54.30;;;;;;4967135;28;20462;-80
2022/05/09 11:20:27;;;;;;;7.75;3.80;;;32.90;51.00;;;;;;4967648;28;20033;-80
2022/05/09 11:23:10;;;;;;;6.38;2.45;;;32.60;53.50;;;;;;4968459;28;20033;-80
2022/05/09 11:26:08;;;;;;;6.15;3.78;;;32.40;53.70;;;;;;5000169;28;20034;-80
2022/05/09 11:28:50;;;;;;;6.35;3.05;;;32.60;52.00;;;;;;4963344;28;20034;-80
2022/05/09 11:31:26;;;;;;;6.40;3.08;;;33.30;50.00;;;;;;4985960;28;20026;-80
2022/05/09 11:34:06;;;;;;;6.55;2.88;;;34.00;49.90;;;;;;4954751;28;20022;-80
2022/05/09 11:36:32;;;;;;;4.65;2.47;;;33.20;52.10;;;;;;4999858;28;20046;-80
2022/05/09 11:39:14;;;;;;;5.53;2.78;;;33.10;52.50;;;;;;4987609;28;20030;-80
2022/05/09 11:41:57;;;;;;;7.07;3.40;;;33.80;50.00;;;;;;4987519;28;20040;-80
2022/05/09 11:44:29;;;;;;;6.10;3.60;;;34.30;47.70;;;;;;4969443;28;20595;-80
2022/05/09 11:47:14;;;;;;;4.65;2.83;;;34.20;49.00;;;;;;4971463;28;20041;-80
2022/05/09 11:49:39;;;;;;;6.07;3.13;;;33.80;49.00;;;;;;4986606;28;20092;-80
2022/05/09 11:52:20;;;;;;;4.35;3.90;;;33.60;48.60;;;;;;4984316;28;20033;-80
2022/05/09 11:54:47;;;;;;;4.32;2.88;;;33.50;48.50;;;;;;4971326;28;20040;-80
2022/05/09 11:57:29;;;;;;;6.82;4.10;;;33.70;49.20;;;;;;4986125;28;20091;-80
2022/05/09 11:59:59;;;;;;;6.60;3.58;;;33.60;47.50;;;;;;4970909;28;20034;-80
2022/05/09 12:02:47;;;;;;;6.70;4.47;;;33.60;48.40;;;;;;4969515;28;20481;-80
2022/05/09 12:05:29;;;;;;;3.90;2.78;;;33.50;47.00;;;;;;4971105;28;20041;-80
2022/05/09 12:08:02;;;;;;;3.65;3.28;;;33.50;48.70;;;;;;5002261;28;20030;-80
2022/05/09 12:10:29;;;;;;;9.88;3.83;;;33.60;48.20;;;;;;4984706;28;20033;-80
2022/05/09 12:12:59;;;;;;;4.97;4.32;;;33.80;48.10;;;;;;4986867;28;20029;-80
2022/05/09 12:15:24;;;;;;;5.03;2.78;;;34.00;46.50;;;;;;4983823;28;20088;-80
2022/05/09 12:18:02;;;;;;;6.13;2.90;;;33.80;47.20;;;;;;4998455;28;20109;-80
2022/05/09 12:20:28;;;;;;;3.63;2.80;;;34.60;47.80;;;;;;4998765;28;20026;-79
2022/05/09 12:23:02;;;;;;;3.17;2.55;;;34.90;46.40;;;;;;5000312;28;20079;-79
2022/05/09 12:25:36;;;;;;;4.32;2.60;;;35.00;47.20;;;;;;4955386;28;20045;-79
2022/05/09 12:28:05;;;;;;;6.50;3.00;;;35.00;55.20;;;;;;4998373;28;20042;-80
2022/05/09 12:30:42;;;;;;;7.00;2.88;;;35.10;53.30;;;;;;4987279;28;20107;-79
2022/05/09 12:33:19;;;;;;;3.67;2.40;;;34.90;53.80;;;;;;4987171;28;20369;-80
2022/05/09 12:35:45;;;;;;;9.88;4.00;;;35.40;49.60;;;;;;4986507;28;20061;-79
2022/05/09 12:38:12;;;;;;;2.95;2.65;;;35.30;49.50;;;;;;4971120;28;20037;-80
2022/05/09 12:40:37;;;;;;;5.22;3.30;;;35.40;51.60;;;;;;4957685;28;20033;-80
2022/05/09 12:43:03;;;;;;;3.50;2.60;;;35.70;50.70;;;;;;4970402;28;20026;-80
2022/05/09 12:45:28;;;;;;;2.97;2.40;;;35.40;52.40;;;;;;4954097;28;20030;-79
2022/05/09 12:47:54;;;;;;;5.93;3.60;;;35.90;51.50;;;;;;4955560;28;20061;-80
2022/05/09 12:50:33;;;;;;;4.20;3.17;;;35.50;54.60;;;;;;4967482;28;20022;-80
2022/05/09 12:53:06;;;;;;;3.67;3.10;;;35.20;54.70;;;;;;4985573;28;20440;-80
2022/05/09 12:55:57;;;;;;;3.55;2.47;;;35.00;54.60;;;;;;4951785;28;20041;-80
2022/05/09 12:58:33;;;;;;;5.80;3.30;;;35.10;54.70;;;;;;4975742;28;20034;-79
2022/05/09 13:01:19;;;;;;;4.72;2.20;;;35.60;53.90;;;;;;4948889;28;20076;-80
2022/05/09 13:03:44;;;;;;;;;;;36.00;54.30;;;;;;4968462;28;20037;-79
2022/05/09 13:06:12;;;;;;;6.25;2.40;;;35.90;51.60;;;;;;4994966;28;19920;-80
2022/05/09 13:08:38;;;;;;;6.95;2.70;;;35.90;50.60;;;;;;4952153;28;20117;-79
2022/05/09 13:11:06;;;;;;;4.80;3.45;;;35.60;51.50;;;;;;4984898;28;20117;-80
2022/05/09 13:13:33;;;;;;;3.92;2.92;;;35.30;49.90;;;;;;4973694;28;20030;-80